Impacts METAR Board INFO
IDs:

KSTL - St Louis/Lambert Int, MO, US

Updated at: 0025 UTC 22 Jan 2018
Potential Impact None Slight Moderate High
Time21/12Z 21/13Z 21/14Z 21/15Z 21/16Z 21/17Z 21/18Z 21/19Z 21/20Z 21/21Z 21/22Z 21/23Z 22/00Z
VIS8 6 3 4 7 10 10 10 10 10 10 10 10
CIG60 60 250 250 250 250 250 34 38 45 250 39 27
CoverBKNBKNBKNBKNBKNBKNBKNBKNBKNBKNBKNBKNBKN
FltCatVFRVFRMVFRMVFRVFRVFRVFRVFRVFRVFRVFRVFRMVFR
WX--BRBRBR------------------
WDir170150110110130160170180200190170170150
WSpd8 6 6 8 11 9 12 15 18 12 12 13 9
WGst-- -- -- -- -- -- -- 24 23 20 24 20 --
Raw hourly METARs
KSTL 211151Z 17008KT 8SM SCT019 BKN060 09/09 A2995 RMK AO2 SLP146 T00890089 10089 20022 58003
KSTL 211251Z COR 15006KT 6SM BR SCT020 BKN060 09/08 A2996 RMK AO2 SLP150 T00890083
KSTL 211357Z 11006KT 3SM BR SCT022 BKN250 07/07 A2996 RMK AO2 T00670067
KSTL 211451Z 11008KT 4SM BR SCT022 BKN250 10/10 A2996 RMK AO2 SLP148 T01000100 53001
KSTL 211551Z 13011KT 7SM FEW022 BKN250 13/11 A2996 RMK AO2 SLP146 T01280111
KSTL 211651Z 16009KT 10SM FEW025 BKN250 16/12 A2993 RMK AO2 SLP139 T01560122
KSTL 211751Z 17012KT 10SM SCT026 BKN250 18/12 A2989 RMK AO2 SLP123 T01830122 10183 20061 58023
KSTL 211851Z 18015G24KT 10SM BKN034 BKN250 20/12 A2985 RMK AO2 SLP110 T02000122
KSTL 211951Z 20018G23KT 10SM BKN038 BKN250 20/12 A2983 RMK AO2 SLP103 T02000122
KSTL 212051Z 19012G20KT 10SM BKN045 BKN250 19/12 A2982 RMK AO2 SLP099 T01890122 56021
KSTL 212151Z COR 17012G24KT 10SM SCT049 BKN250 18/12 A2982 RMK AO2 SLP099 T01830122
KSTL 212251Z 17013G20KT 10SM SCT029 BKN039 BKN250 18/12 A2983 RMK AO2 SLP101 T01780122
KSTL 212351Z COR 15009KT 10SM BKN027 BKN080 16/12 A2984 RMK AO2 SLP104 T01560122 10206 20156 53004